createdAt,value
2023-04-19T00:02:25.722Z,57.70
2023-04-19T00:04:53.444Z,39.42
2023-04-19T00:07:20.371Z,44.55
2023-04-19T00:09:46.952Z,44.38
2023-04-19T00:12:13.598Z,46.97
2023-04-19T00:14:40.114Z,45.70
2023-04-19T00:17:06.861Z,49.50
2023-04-19T00:19:33.593Z,48.83
2023-04-19T00:22:00.763Z,51.85
2023-04-19T00:24:27.306Z,55.00
2023-04-19T00:26:53.961Z,48.30
2023-04-19T00:29:20.653Z,55.45
2023-04-19T00:31:47.238Z,47.13
2023-04-19T00:34:14.062Z,50.53
2023-04-19T00:36:40.946Z,49.20
2023-04-19T00:39:07.790Z,47.75
2023-04-19T00:41:36.917Z,49.42
2023-04-19T00:44:04.149Z,48.88
2023-04-19T00:46:33.045Z,57.65
2023-04-19T00:49:00.056Z,50.28
2023-04-19T00:51:27.221Z,48.90
2023-04-19T00:53:54.216Z,51.72
2023-04-19T00:56:22.877Z,48.35
2023-04-19T00:58:53.330Z,57.20
2023-04-19T01:01:20.361Z,56.30
2023-04-19T01:03:49.169Z,49.05
2023-04-19T01:06:15.886Z,49.28
2023-04-19T01:08:42.546Z,54.13
2023-04-19T01:11:09.170Z,56.80
2023-04-19T01:13:36.788Z,58.20
2023-04-19T01:16:03.556Z,56.53
2023-04-19T01:18:35.636Z,57.95
2023-04-19T01:23:28.678Z,55.72
2023-04-19T01:25:56.123Z,59.35
2023-04-19T01:28:22.657Z,57.72
2023-04-19T01:30:51.275Z,59.05
2023-04-19T01:33:18.326Z,50.85
2023-04-19T01:35:44.858Z,60.67
2023-04-19T01:38:11.393Z,51.60
2023-04-19T01:40:40.715Z,62.58
2023-04-19T01:43:07.859Z,58.65
2023-04-19T01:45:37.958Z,59.22
2023-04-19T01:48:04.918Z,57.53
2023-04-19T01:50:34.210Z,56.22
2023-04-19T01:53:01.223Z,58.13
2023-04-19T01:55:29.191Z,56.47
2023-04-19T01:57:56.015Z,60.30
2023-04-19T02:00:23.372Z,54.20
2023-04-19T02:02:50.296Z,61.30
2023-04-19T02:05:16.978Z,55.78
2023-04-19T02:07:43.753Z,47.97
2023-04-19T02:10:14.053Z,48.35
2023-04-19T02:12:41.662Z,47.97
2023-04-19T02:15:08.682Z,49.75
2023-04-19T02:17:36.147Z,50.97
2023-04-19T02:20:04.310Z,41.92
2023-04-19T02:22:30.991Z,46.65
2023-04-19T02:24:57.482Z,46.53
2023-04-19T02:27:29.936Z,44.22
2023-04-19T02:29:56.634Z,43.92
2023-04-19T02:32:24.266Z,49.13
2023-04-19T02:34:51.088Z,47.45
2023-04-19T02:37:18.408Z,39.83
2023-04-19T02:39:45.863Z,46.50
2023-04-19T02:42:12.785Z,44.28
2023-04-19T02:44:39.468Z,44.22
2023-04-19T02:47:06.194Z,39.17
2023-04-19T02:49:36.238Z,46.83
2023-04-19T02:52:03.897Z,41.60
2023-04-19T02:54:33.206Z,43.13
2023-04-19T02:57:01.115Z,43.83
2023-04-19T02:59:27.890Z,40.60
2023-04-19T03:01:56.390Z,37.90
2023-04-19T03:04:24.514Z,39.35
2023-04-19T03:06:54.057Z,33.22
2023-04-19T03:09:20.938Z,41.67
2023-04-19T03:11:47.615Z,36.88
2023-04-19T03:14:17.774Z,38.40
2023-04-19T03:16:44.636Z,40.65
2023-04-19T03:19:11.360Z,36.22
2023-04-19T03:21:45.042Z,36.90
2023-04-19T03:24:12.388Z,36.10
2023-04-19T03:29:11.503Z,35.67
2023-04-19T03:31:41.952Z,35.80
2023-04-19T03:34:12.017Z,30.25
2023-04-19T03:36:42.433Z,33.25
2023-04-19T03:39:09.196Z,29.73
2023-04-19T03:41:37.923Z,35.15
2023-04-19T03:44:18.980Z,32.50
2023-04-19T03:46:46.759Z,32.33
2023-04-19T03:49:15.822Z,31.90
2023-04-19T03:51:45.840Z,34.60
2023-04-19T03:54:12.377Z,35.85
2023-04-19T03:56:39.013Z,32.83
2023-04-19T03:59:05.914Z,34.95
2023-04-19T04:01:35.168Z,38.97
2023-04-19T04:04:04.741Z,38.78
2023-04-19T04:06:31.786Z,36.60
2023-04-19T04:08:58.554Z,37.75
2023-04-19T04:11:25.871Z,37.30
2023-04-19T04:13:52.545Z,36.97
2023-04-19T04:16:24.283Z,33.20
2023-04-19T04:18:52.669Z,31.95
2023-04-19T04:21:20.437Z,38.25
2023-04-19T04:23:49.868Z,36.17
2023-04-19T04:26:31.350Z,35.85
2023-04-19T04:29:14.953Z,37.53
2023-04-19T04:31:42.415Z,34.72
2023-04-19T04:34:10.151Z,35.75
2023-04-19T04:36:44.468Z,28.15
2023-04-19T04:39:12.072Z,29.75
2023-04-19T04:41:41.184Z,26.92
2023-04-19T04:44:23.382Z,32.92
2023-04-19T04:46:50.784Z,27.73
2023-04-19T04:49:23.599Z,24.88
2023-04-19T04:51:50.322Z,25.30
2023-04-19T04:54:17.332Z,28.67
2023-04-19T04:56:45.797Z,25.45
2023-04-19T04:59:13.106Z,26.52
2023-04-19T05:01:43.573Z,22.52
2023-04-19T05:04:11.327Z,22.75
2023-04-19T05:06:40.795Z,28.88
2023-04-19T05:09:09.624Z,26.23
2023-04-19T05:11:36.620Z,30.40
2023-04-19T05:14:05.952Z,29.02
2023-04-19T05:16:33.854Z,24.35
2023-04-19T05:19:01.207Z,24.65
2023-04-19T05:21:33.884Z,27.38
2023-04-19T05:24:01.644Z,30.17
2023-04-19T05:26:28.251Z,31.30
2023-04-19T05:28:55.103Z,31.40
2023-04-19T05:31:32.110Z,30.27
2023-04-19T05:34:22.329Z,28.15
2023-04-19T05:36:49.650Z,30.33
2023-04-19T05:39:17.049Z,32.00
2023-04-19T05:41:44.097Z,31.98
2023-04-19T05:44:10.762Z,35.88
2023-04-19T05:46:37.591Z,35.03
2023-04-19T05:49:06.389Z,34.38
2023-04-19T05:51:59.058Z,29.33
2023-04-19T05:54:51.941Z,30.35
2023-04-19T05:57:18.643Z,30.25
2023-04-19T05:59:45.698Z,31.60
2023-04-19T06:02:16.147Z,28.40
2023-04-19T06:04:43.436Z,33.72
2023-04-19T06:07:22.328Z,31.95
2023-04-19T06:09:57.730Z,35.47
2023-04-19T06:12:24.339Z,42.28
2023-04-19T06:14:52.309Z,28.75
2023-04-19T06:17:24.477Z,35.00
2023-04-19T06:19:52.463Z,27.90
2023-04-19T06:22:19.030Z,35.00
2023-04-19T06:24:48.941Z,34.88
2023-04-19T06:27:16.671Z,37.03
2023-04-19T06:29:43.325Z,35.38
2023-04-19T06:32:11.601Z,36.83
2023-04-19T06:34:38.164Z,32.90
2023-04-19T06:37:04.662Z,31.73
2023-04-19T06:39:31.315Z,37.75
2023-04-19T06:41:57.805Z,42.45
2023-04-19T06:44:24.423Z,35.00
2023-04-19T06:46:51.104Z,32.63
2023-04-19T06:49:17.862Z,34.65
2023-04-19T06:51:45.450Z,35.85
2023-04-19T06:54:12.088Z,36.10
2023-04-19T06:56:47.278Z,35.53
2023-04-19T06:59:19.082Z,39.10
2023-04-19T07:01:46.548Z,20.23
2023-04-19T07:04:13.622Z,15.38
2023-04-19T07:06:40.620Z,24.08
2023-04-19T07:09:08.240Z,25.67
2023-04-19T07:11:37.842Z,30.42
2023-04-19T07:14:04.497Z,40.20
2023-04-19T07:16:31.166Z,22.23
2023-04-19T07:18:57.916Z,13.32
2023-04-19T07:21:27.097Z,40.47
2023-04-19T07:23:53.613Z,18.80
2023-04-19T07:26:20.390Z,7.25
2023-04-19T07:28:46.932Z,7.25
2023-04-19T07:31:17.784Z,5.53
2023-04-19T07:33:46.595Z,7.03
2023-04-19T07:36:13.134Z,6.57
2023-04-19T07:38:39.823Z,7.53
2023-04-19T07:41:06.442Z,6.85
2023-04-19T07:43:33.684Z,11.30
2023-04-19T07:46:00.377Z,11.77
2023-04-19T07:48:27.004Z,14.45
2023-04-19T07:50:53.813Z,9.60
2023-04-19T07:53:20.686Z,8.48
2023-04-19T07:55:47.589Z,9.82
2023-04-19T07:58:14.765Z,8.23
2023-04-19T08:00:41.307Z,6.90
2023-04-19T08:03:08.124Z,6.50
2023-04-19T08:05:35.061Z,8.15
2023-04-19T08:08:01.643Z,13.52
2023-04-19T08:10:30.614Z,8.63
2023-04-19T08:13:04.428Z,6.85
2023-04-19T08:18:06.116Z,8.48
2023-04-19T08:20:33.195Z,6.75
2023-04-19T08:23:07.553Z,7.97
2023-04-19T08:25:41.367Z,8.10
2023-04-19T08:28:08.131Z,6.65
2023-04-19T08:30:35.010Z,7.10
2023-04-19T08:33:01.811Z,11.27
2023-04-19T08:35:28.420Z,7.72
2023-04-19T08:37:57.666Z,7.63
2023-04-19T08:40:24.711Z,17.73
2023-04-19T08:42:51.822Z,13.68
2023-04-19T08:45:27.509Z,10.48
2023-04-19T08:48:01.429Z,17.60
2023-04-19T08:50:36.003Z,7.85
2023-04-19T08:56:03.421Z,10.43
2023-04-19T08:58:51.986Z,11.30
2023-04-19T09:01:34.778Z,7.93
2023-04-19T09:06:40.109Z,8.05
2023-04-19T09:11:58.331Z,6.40
2023-04-19T09:14:26.812Z,9.40
2023-04-19T09:16:55.810Z,7.30
2023-04-19T09:19:25.294Z,6.07
2023-04-19T09:21:54.790Z,6.05
2023-04-19T09:25:13.918Z,6.80
2023-04-19T09:27:30.050Z,8.20
2023-04-19T09:29:58.794Z,10.77
2023-04-19T09:32:26.494Z,7.22
2023-04-19T09:35:00.818Z,10.32
2023-04-19T09:39:56.936Z,15.70
2023-04-19T09:42:42.324Z,10.48
2023-04-19T09:47:40.809Z,10.30
2023-04-19T09:50:22.850Z,11.15
2023-04-19T09:52:52.847Z,46.70
2023-04-19T09:55:27.032Z,23.90
2023-04-19T09:57:55.209Z,26.70
2023-04-19T10:00:23.174Z,37.40
2023-04-19T10:02:57.929Z,9.05
2023-04-19T10:05:26.403Z,8.95
2023-04-19T10:07:59.261Z,11.68
2023-04-19T10:10:41.370Z,22.55
2023-04-19T10:15:51.995Z,17.55
2023-04-19T10:18:22.901Z,15.43
2023-04-19T10:21:01.007Z,12.52
2023-04-19T10:23:29.088Z,7.93
2023-04-19T10:25:59.544Z,24.70
2023-04-19T10:28:29.860Z,28.08
2023-04-19T10:31:03.862Z,21.73
2023-04-19T10:33:37.740Z,19.65
2023-04-19T10:36:08.446Z,23.25
2023-04-19T10:38:52.164Z,43.72
2023-04-19T10:41:19.677Z,42.53
2023-04-19T10:43:58.310Z,10.70
2023-04-19T10:46:36.513Z,27.02
2023-04-19T10:49:05.930Z,11.63
2023-04-19T10:51:36.455Z,18.27
2023-04-19T10:54:07.429Z,8.32
2023-04-19T10:56:37.385Z,9.82
2023-04-19T10:59:11.445Z,14.90
2023-04-19T11:01:39.736Z,8.25
2023-04-19T11:04:07.732Z,12.15
2023-04-19T11:06:36.011Z,13.63
2023-04-19T11:09:10.293Z,20.13
2023-04-19T11:11:37.352Z,13.02
2023-04-19T11:14:04.373Z,15.43
2023-04-19T11:16:42.509Z,11.73
2023-04-19T11:19:16.763Z,16.87
2023-04-19T11:21:46.044Z,14.02
2023-04-19T11:24:13.146Z,15.63
2023-04-19T11:26:42.904Z,14.50
2023-04-19T11:29:10.185Z,17.75
2023-04-19T11:31:36.885Z,17.08
2023-04-19T11:34:03.814Z,16.58
2023-04-19T11:36:32.133Z,13.30
2023-04-19T11:38:58.718Z,12.43
2023-04-19T11:41:25.412Z,14.07
2023-04-19T11:43:52.336Z,15.95
2023-04-19T11:46:19.237Z,17.27
2023-04-19T11:48:53.199Z,15.57
2023-04-19T11:51:20.380Z,18.33
2023-04-19T11:53:47.327Z,16.08
2023-04-19T11:56:15.532Z,16.65
2023-04-19T11:58:44.901Z,15.60
2023-04-19T12:01:14.235Z,18.83
2023-04-19T12:03:41.256Z,17.33
2023-04-19T12:06:11.947Z,14.02
2023-04-19T12:08:42.393Z,15.65
2023-04-19T12:11:09.137Z,16.50
2023-04-19T12:13:36.486Z,15.90
2023-04-19T12:16:03.575Z,18.58
2023-04-19T12:19:17.491Z,14.60
2023-04-19T12:21:45.989Z,16.92
2023-04-19T12:24:15.532Z,14.20
2023-04-19T12:26:56.923Z,12.30
2023-04-19T12:29:23.566Z,20.27
2023-04-19T12:31:50.190Z,18.90
2023-04-19T12:34:16.767Z,18.27
2023-04-19T12:36:43.290Z,15.35
2023-04-19T12:39:09.996Z,19.65
2023-04-19T12:41:36.548Z,19.35
2023-04-19T12:44:03.169Z,26.08
2023-04-19T12:48:53.273Z,23.77
2023-04-19T12:51:19.833Z,20.70
2023-04-19T12:53:50.027Z,21.42
2023-04-19T12:56:17.903Z,19.75
2023-04-19T12:58:46.759Z,22.58
2023-04-19T13:01:13.488Z,20.83
2023-04-19T13:03:40.382Z,23.80
2023-04-19T13:06:07.209Z,26.58
2023-04-19T13:08:41.418Z,21.85
2023-04-19T13:11:11.271Z,24.63
2023-04-19T13:13:37.872Z,28.10
2023-04-19T13:16:06.186Z,27.55
2023-04-19T13:18:33.110Z,21.25
2023-04-19T13:20:59.886Z,25.50
2023-04-19T13:23:26.529Z,30.45
2023-04-19T13:25:53.197Z,29.98
2023-04-19T13:28:19.814Z,26.08
2023-04-19T13:30:46.496Z,24.70
2023-04-19T13:33:13.259Z,29.75
2023-04-19T13:35:39.936Z,24.60
2023-04-19T13:38:07.570Z,23.88
2023-04-19T13:40:34.327Z,24.27
2023-04-19T13:43:00.887Z,23.65
2023-04-19T13:45:27.514Z,26.58
2023-04-19T13:47:54.197Z,23.10
2023-04-19T13:50:21.190Z,21.30
2023-04-19T13:52:47.719Z,33.38
2023-04-19T13:55:14.322Z,26.13
2023-04-19T13:57:40.835Z,22.38
2023-04-19T14:00:08.330Z,28.63
2023-04-19T14:02:38.148Z,24.48
2023-04-19T14:05:05.461Z,23.83
2023-04-19T14:07:32.589Z,26.30
2023-04-19T14:09:59.233Z,25.23
2023-04-19T14:12:26.662Z,31.55
2023-04-19T14:14:53.270Z,29.83
2023-04-19T14:17:19.894Z,24.02
2023-04-19T14:19:46.483Z,24.00
2023-04-19T14:22:13.442Z,24.23
2023-04-19T14:24:39.988Z,23.88
2023-04-19T14:27:10.383Z,26.15
2023-04-19T14:29:38.590Z,22.55
2023-04-19T14:32:23.544Z,29.13
2023-04-19T14:34:52.295Z,24.25
2023-04-19T14:37:21.515Z,21.02
2023-04-19T14:39:48.128Z,24.95
2023-04-19T14:42:18.062Z,26.15
2023-04-19T14:44:47.234Z,22.17
2023-04-19T14:47:14.451Z,23.00
2023-04-19T14:49:41.879Z,20.50
2023-04-19T14:52:08.722Z,19.55
2023-04-19T14:54:35.950Z,19.05
2023-04-19T14:57:02.918Z,19.50
2023-04-19T14:59:32.429Z,22.75
2023-04-19T15:01:59.107Z,17.77
2023-04-19T15:04:26.268Z,20.20
2023-04-19T15:06:53.122Z,21.17
2023-04-19T15:09:19.679Z,22.88
2023-04-19T15:11:46.595Z,19.42
2023-04-19T15:14:13.180Z,23.27
2023-04-19T15:16:39.864Z,30.50
2023-04-19T15:19:07.480Z,28.85
2023-04-19T15:21:37.252Z,27.77
2023-04-19T15:24:05.060Z,25.98
2023-04-19T15:26:32.165Z,26.65
2023-04-19T15:28:58.781Z,23.98
2023-04-19T15:31:25.486Z,25.98
2023-04-19T15:33:52.974Z,26.70
2023-04-19T15:36:19.655Z,26.52
2023-04-19T15:38:46.404Z,33.72
2023-04-19T15:41:13.193Z,26.23
2023-04-19T15:43:39.683Z,31.65
2023-04-19T15:46:06.349Z,30.85
2023-04-19T15:48:32.961Z,27.73
2023-04-19T15:50:59.657Z,24.20
2023-04-19T15:53:26.922Z,27.80
2023-04-19T15:55:55.775Z,27.73
2023-04-19T15:58:24.057Z,31.35
2023-04-19T16:00:50.730Z,30.80
2023-04-19T16:03:17.648Z,26.67
2023-04-19T16:05:44.334Z,26.42
2023-04-19T16:08:11.836Z,31.75
2023-04-19T16:10:39.492Z,32.92
2023-04-19T16:13:06.383Z,29.10
2023-04-19T16:15:33.034Z,31.25
2023-04-19T16:17:59.640Z,31.27
2023-04-19T16:20:26.727Z,34.00
2023-04-19T16:22:53.413Z,29.45
2023-04-19T16:25:20.084Z,30.58
2023-04-19T16:27:46.923Z,36.28
2023-04-19T16:30:17.996Z,34.80
2023-04-19T16:32:44.734Z,29.50
2023-04-19T16:35:11.428Z,33.00
2023-04-19T16:37:38.103Z,32.53
2023-04-19T16:40:10.576Z,33.03
2023-04-19T16:42:38.269Z,34.78
2023-04-19T16:45:06.331Z,34.20
2023-04-19T16:47:35.953Z,38.47
2023-04-19T16:50:02.672Z,34.80
2023-04-19T16:52:34.181Z,36.10
2023-04-19T16:55:03.504Z,38.63
2023-04-19T16:57:31.158Z,43.35
2023-04-19T16:59:57.963Z,40.17
2023-04-19T17:02:24.828Z,37.00
2023-04-19T17:04:51.931Z,38.35
2023-04-19T17:07:18.586Z,38.67
2023-04-19T17:09:45.955Z,44.33
2023-04-19T17:12:12.540Z,50.22
2023-04-19T17:14:39.466Z,47.20
2023-04-19T17:17:06.005Z,42.83
2023-04-19T17:19:32.631Z,45.20
2023-04-19T17:22:05.029Z,43.55
2023-04-19T17:24:33.226Z,48.75
2023-04-19T17:27:00.276Z,45.35
2023-04-19T17:29:27.451Z,46.50
2023-04-19T17:31:54.389Z,42.42
2023-04-19T17:34:21.413Z,44.42
2023-04-19T17:36:48.343Z,50.03
2023-04-19T17:39:15.146Z,51.67
2023-04-19T17:41:41.914Z,48.05
2023-04-19T17:44:08.455Z,54.58
2023-04-19T17:46:38.536Z,53.53
2023-04-19T17:49:05.083Z,46.60
2023-04-19T17:51:32.534Z,47.72
2023-04-19T17:53:59.094Z,55.25
2023-04-19T17:56:25.622Z,46.75
2023-04-19T17:58:52.438Z,51.10
2023-04-19T18:01:19.070Z,50.72
2023-04-19T18:03:46.044Z,51.80
2023-04-19T18:06:16.315Z,55.22
2023-04-19T18:08:46.118Z,53.03
2023-04-19T18:11:13.222Z,54.95
2023-04-19T18:13:39.843Z,53.63
2023-04-19T18:16:06.571Z,48.42
2023-04-19T18:18:33.393Z,50.05
2023-04-19T18:21:04.866Z,50.88
2023-04-19T18:23:31.988Z,49.88
2023-04-19T18:26:02.187Z,54.10
2023-04-19T18:28:29.192Z,47.92
2023-04-19T18:30:55.774Z,45.33
2023-04-19T18:33:22.808Z,55.58
2023-04-19T18:35:49.526Z,52.15
2023-04-19T18:38:16.480Z,49.03
2023-04-19T18:40:42.981Z,42.42
2023-04-19T18:43:09.601Z,47.05
2023-04-19T18:45:36.311Z,48.30
2023-04-19T18:48:03.511Z,49.75
2023-04-19T18:50:31.200Z,47.85
2023-04-19T18:52:58.476Z,45.92
2023-04-19T18:55:26.550Z,39.47
2023-04-19T18:58:01.345Z,40.83
2023-04-19T19:00:28.387Z,49.08
2023-04-19T19:02:57.029Z,44.72
2023-04-19T19:05:24.254Z,46.22
2023-04-19T19:07:51.400Z,65.22
2023-04-19T19:10:21.773Z,43.67
2023-04-19T19:12:49.945Z,41.30
2023-04-19T19:15:16.920Z,45.00
2023-04-19T19:17:48.520Z,49.55
2023-04-19T19:20:16.533Z,48.85
2023-04-19T19:22:43.613Z,42.75
2023-04-19T19:25:12.402Z,41.92
2023-04-19T19:27:39.051Z,42.70
2023-04-19T19:30:07.711Z,45.90
2023-04-19T19:32:34.647Z,41.67
2023-04-19T19:35:06.323Z,45.05
2023-04-19T19:37:36.084Z,43.90
2023-04-19T19:40:05.400Z,43.88
2023-04-19T19:42:36.356Z,41.78
2023-04-19T19:45:04.158Z,46.42
2023-04-19T19:47:43.368Z,45.53
2023-04-19T19:51:01.083Z,44.97
2023-04-19T19:53:01.391Z,45.17
2023-04-19T19:55:28.887Z,47.35
2023-04-19T20:00:39.829Z,50.88
2023-04-19T20:03:11.316Z,47.17
2023-04-19T20:05:38.276Z,50.78
2023-04-19T20:08:10.555Z,50.42
2023-04-19T20:10:39.664Z,49.33
2023-04-19T20:13:06.728Z,49.58
2023-04-19T20:15:37.768Z,51.28
2023-04-19T20:18:07.711Z,53.75
2023-04-19T20:20:35.741Z,47.75
2023-04-19T20:23:02.547Z,49.83
2023-04-19T20:25:31.167Z,48.63
2023-04-19T20:28:01.894Z,51.50
2023-04-19T20:30:29.576Z,44.38
2023-04-19T20:32:56.275Z,44.03
2023-04-19T20:35:23.104Z,50.63
2023-04-19T20:37:50.899Z,50.95
2023-04-19T20:40:17.726Z,47.47
2023-04-19T20:42:44.986Z,50.65
2023-04-19T20:45:14.346Z,49.72
2023-04-19T20:47:41.252Z,46.97
2023-04-19T20:50:08.687Z,49.80
2023-04-19T20:52:38.218Z,57.28
2023-04-19T20:55:05.127Z,50.13
2023-04-19T20:57:31.813Z,47.28
2023-04-19T20:59:59.286Z,51.70
2023-04-19T21:02:28.933Z,48.55
2023-04-19T21:04:55.534Z,53.33
2023-04-19T21:07:22.178Z,52.10
2023-04-19T21:09:48.733Z,49.17
2023-04-19T21:12:15.308Z,53.65
2023-04-19T21:14:41.837Z,51.25
2023-04-19T21:17:09.003Z,49.72
2023-04-19T21:19:36.801Z,58.80
2023-04-19T21:22:03.437Z,58.28
2023-04-19T21:24:29.948Z,52.28
2023-04-19T21:26:57.684Z,60.72
2023-04-19T21:29:25.309Z,52.10
2023-04-19T21:31:51.922Z,50.70
2023-04-19T21:34:18.429Z,54.80
2023-04-19T21:36:45.107Z,81.45
2023-04-19T21:39:11.618Z,83.95
2023-04-19T21:41:38.227Z,71.65
2023-04-19T21:44:04.890Z,57.92
2023-04-19T21:46:31.977Z,58.00
2023-04-19T21:48:58.956Z,49.45
2023-04-19T21:51:25.939Z,49.15
2023-04-19T21:53:52.497Z,49.22
2023-04-19T21:56:19.168Z,57.28
2023-04-19T21:58:45.884Z,55.08
2023-04-19T22:01:12.550Z,52.25
2023-04-19T22:03:39.486Z,54.55
2023-04-19T22:06:06.784Z,46.92
2023-04-19T22:08:34.288Z,45.42
2023-04-19T22:11:01.149Z,59.88
2023-04-19T22:13:28.431Z,69.28
2023-04-19T22:16:00.778Z,79.82
2023-04-19T22:18:27.366Z,90.72
2023-04-19T22:20:55.577Z,75.25
2023-04-19T22:23:22.248Z,74.53
2023-04-19T22:25:48.838Z,82.57
2023-04-19T22:28:15.479Z,75.97
2023-04-19T22:30:42.235Z,66.70
2023-04-19T22:33:08.875Z,68.22
2023-04-19T22:35:35.455Z,56.97
2023-04-19T22:38:02.027Z,61.25
2023-04-19T22:40:28.719Z,62.42
2023-04-19T22:42:55.630Z,67.57
2023-04-19T22:45:22.209Z,74.32
2023-04-19T22:47:48.815Z,69.80
2023-04-19T22:50:15.672Z,66.03
2023-04-19T22:52:42.622Z,70.07
2023-04-19T22:55:10.136Z,65.55
2023-04-19T22:57:36.855Z,62.20
2023-04-19T23:00:05.288Z,62.60
2023-04-19T23:02:32.017Z,70.90
2023-04-19T23:05:00.683Z,63.35
2023-04-19T23:07:28.747Z,57.40
2023-04-19T23:09:55.745Z,64.00
2023-04-19T23:12:22.969Z,62.53
2023-04-19T23:14:50.470Z,70.82
2023-04-19T23:17:18.121Z,63.05
2023-04-19T23:19:44.769Z,67.93
2023-04-19T23:22:11.355Z,62.80
2023-04-19T23:24:38.293Z,60.20
2023-04-19T23:27:04.980Z,69.43
2023-04-19T23:29:31.549Z,112.47
2023-04-19T23:31:58.208Z,99.80
2023-04-19T23:34:24.914Z,81.95
2023-04-19T23:36:51.447Z,72.80
2023-04-19T23:39:18.090Z,69.68
2023-04-19T23:41:45.022Z,79.50
2023-04-19T23:44:11.568Z,76.68
2023-04-19T23:46:38.116Z,76.18
2023-04-19T23:49:04.749Z,79.38
2023-04-19T23:51:32.752Z,78.63
2023-04-19T23:53:59.286Z,82.32
2023-04-19T23:56:26.214Z,76.70
2023-04-19T23:58:52.726Z,83.10
